createdAt,value
2023-02-25T00:00:57.042Z,3.44
2023-02-25T00:03:26.607Z,3.42
2023-02-25T00:05:56.225Z,3.46
2023-02-25T00:08:25.819Z,3.43
2023-02-25T00:11:02.693Z,3.46
2023-02-25T00:13:33.417Z,3.56
2023-02-25T00:16:05.877Z,3.58
2023-02-25T00:18:35.485Z,3.45
2023-02-25T00:21:09.576Z,3.44
2023-02-25T00:23:39.238Z,3.40
2023-02-25T00:26:11.737Z,3.42
2023-02-25T00:28:43.067Z,3.39
2023-02-25T00:31:16.291Z,3.45
2023-02-25T00:33:46.668Z,3.37
2023-02-25T00:36:20.888Z,3.29
2023-02-25T00:38:51.215Z,3.36
2023-02-25T00:41:26.915Z,3.29
2023-02-25T00:43:57.273Z,3.24
2023-02-25T00:46:27.241Z,3.25
2023-02-25T00:48:57.127Z,3.16
2023-02-25T00:51:29.862Z,3.27
2023-02-25T00:54:00.254Z,3.22
2023-02-25T00:56:32.503Z,3.14
2023-02-25T00:59:02.413Z,3.15
2023-02-25T01:01:34.035Z,3.23
2023-02-25T01:04:04.224Z,3.25
2023-02-25T01:06:36.448Z,3.23
2023-02-25T01:09:08.153Z,3.16
2023-02-25T01:11:40.346Z,3.16
2023-02-25T01:14:14.623Z,3.16
2023-02-25T01:16:45.167Z,3.20
2023-02-25T01:19:16.374Z,3.03
2023-02-25T01:21:49.576Z,3.07
2023-02-25T01:24:22.000Z,3.02
2023-02-25T01:26:56.602Z,2.92
2023-02-25T01:29:29.042Z,2.96
2023-02-25T01:32:00.821Z,3.04
2023-02-25T01:34:31.775Z,3.09
2023-02-25T01:37:04.546Z,3.03
2023-02-25T01:39:34.913Z,2.96
2023-02-25T01:42:16.317Z,2.66
2023-02-25T01:45:22.106Z,2.72
2023-02-25T01:47:54.844Z,2.71
2023-02-25T01:50:28.167Z,2.80
2023-02-25T01:53:01.944Z,2.90
2023-02-25T01:55:31.680Z,2.94
2023-02-25T01:58:04.902Z,3.07
2023-02-25T02:00:36.201Z,3.04
2023-02-25T02:03:10.341Z,3.10
2023-02-25T02:05:51.298Z,3.20
2023-02-25T02:08:21.105Z,3.09
2023-02-25T02:10:50.717Z,3.09
2023-02-25T02:13:23.304Z,2.98
2023-02-25T02:16:15.064Z,3.02
2023-02-25T02:18:50.939Z,3.02
2023-02-25T02:21:35.834Z,2.99
2023-02-25T02:24:39.186Z,2.95
2023-02-25T02:27:12.782Z,2.71
2023-02-25T02:30:34.840Z,2.44
2023-02-25T02:33:14.106Z,2.38
2023-02-25T02:35:53.877Z,2.53
2023-02-25T02:38:30.336Z,2.64
2023-02-25T02:41:07.768Z,2.70
2023-02-25T02:43:46.725Z,2.73
2023-02-25T02:46:21.175Z,2.78
2023-02-25T02:48:57.458Z,2.80
2023-02-25T02:51:35.690Z,2.74
2023-02-25T02:54:09.232Z,2.80
2023-02-25T02:56:41.869Z,2.80
2023-02-25T02:59:15.591Z,2.81
2023-02-25T03:01:51.503Z,2.74
2023-02-25T03:04:30.716Z,2.76
2023-02-25T03:07:05.425Z,2.78
2023-02-25T03:09:39.708Z,2.78
2023-02-25T03:12:10.496Z,2.78
2023-02-25T03:14:40.605Z,2.73
2023-02-25T03:17:13.984Z,2.74
2023-02-25T03:19:50.537Z,2.67
2023-02-25T03:22:27.872Z,2.39
2023-02-25T03:25:03.720Z,2.02
2023-02-25T03:27:38.007Z,1.97
2023-02-25T03:30:16.007Z,1.81
2023-02-25T03:32:50.231Z,1.79
2023-02-25T03:35:24.493Z,1.66
2023-02-25T03:37:58.314Z,1.23
2023-02-25T03:40:30.111Z,1.25
2023-02-25T03:43:03.028Z,1.25
2023-02-25T03:45:35.624Z,1.40
2023-02-25T03:48:06.150Z,1.42
2023-02-25T03:50:42.991Z,1.45
2023-02-25T03:53:15.006Z,1.55
2023-02-25T03:55:57.804Z,1.63
2023-02-25T03:58:27.524Z,1.53
2023-02-25T04:01:02.572Z,1.70
2023-02-25T04:03:34.842Z,1.64
2023-02-25T04:06:08.328Z,1.80
2023-02-25T04:08:37.934Z,2.00
2023-02-25T04:11:07.707Z,1.99
2023-02-25T04:13:37.374Z,2.07
2023-02-25T04:16:08.567Z,2.09
2023-02-25T04:18:38.648Z,2.01
2023-02-25T04:21:26.488Z,1.96
2023-02-25T04:23:56.073Z,1.79
2023-02-25T04:26:25.883Z,1.90
2023-02-25T04:28:55.737Z,1.97
2023-02-25T04:31:25.690Z,2.12
2023-02-25T04:33:58.182Z,2.23
2023-02-25T04:36:32.526Z,2.31
2023-02-25T04:39:03.745Z,2.33
2023-02-25T04:41:34.834Z,2.21
2023-02-25T04:44:06.166Z,2.26
2023-02-25T04:46:38.216Z,2.27
2023-02-25T04:49:08.565Z,2.34
2023-02-25T04:51:41.864Z,2.36
2023-02-25T04:54:11.522Z,2.36
2023-02-25T04:56:41.930Z,2.40
2023-02-25T04:59:13.575Z,2.37
2023-02-25T05:01:44.454Z,2.45
2023-02-25T05:04:14.097Z,2.41
2023-02-25T05:06:46.252Z,2.56
2023-02-25T05:09:15.826Z,2.35
2023-02-25T05:11:45.422Z,2.40
2023-02-25T05:14:15.112Z,2.41
2023-02-25T05:16:44.746Z,2.41
2023-02-25T05:19:18.836Z,2.41
2023-02-25T05:21:51.272Z,2.42
2023-02-25T05:24:23.810Z,2.40
2023-02-25T05:26:54.099Z,2.42
2023-02-25T05:29:23.661Z,2.36
2023-02-25T05:31:55.304Z,2.42
2023-02-25T05:34:25.144Z,2.41
2023-02-25T05:36:57.295Z,2.40
2023-02-25T05:39:26.913Z,2.37
2023-02-25T05:41:56.486Z,2.46
2023-02-25T05:44:26.058Z,2.40
2023-02-25T05:46:55.743Z,2.62
2023-02-25T05:49:27.176Z,2.49
2023-02-25T05:51:59.345Z,2.58
2023-02-25T05:54:28.938Z,2.44
2023-02-25T05:56:58.563Z,2.36
2023-02-25T05:59:28.294Z,2.35
2023-02-25T06:01:57.907Z,2.41
2023-02-25T06:04:27.982Z,2.49
2023-02-25T06:07:00.149Z,2.40
2023-02-25T06:09:29.717Z,2.41
2023-02-25T06:11:59.330Z,2.36
2023-02-25T06:14:29.117Z,2.27
2023-02-25T06:16:58.809Z,2.27
2023-02-25T06:19:29.025Z,2.19
2023-02-25T06:22:01.276Z,2.11
2023-02-25T06:24:30.889Z,2.09
2023-02-25T06:27:00.477Z,2.04
2023-02-25T06:29:30.174Z,1.92
2023-02-25T06:32:01.585Z,1.89
2023-02-25T06:34:34.945Z,1.93
2023-02-25T06:37:07.417Z,2.06
2023-02-25T06:39:37.413Z,2.00
2023-02-25T06:42:07.502Z,1.80
2023-02-25T06:44:37.168Z,1.80
2023-02-25T06:47:06.859Z,1.77
2023-02-25T06:49:36.423Z,1.88
2023-02-25T06:52:08.862Z,1.84
2023-02-25T06:54:38.474Z,1.90
2023-02-25T06:57:08.212Z,2.12
2023-02-25T06:59:38.251Z,1.97
2023-02-25T07:02:08.635Z,2.21
2023-02-25T07:04:38.275Z,2.01
2023-02-25T07:07:10.745Z,1.99
2023-02-25T07:09:40.355Z,1.91
2023-02-25T07:12:09.940Z,1.74
2023-02-25T07:14:39.568Z,1.78
2023-02-25T07:17:09.239Z,1.81
2023-02-25T07:19:38.985Z,1.59
2023-02-25T07:22:14.482Z,1.64
2023-02-25T07:24:44.298Z,1.50
2023-02-25T07:27:15.646Z,1.34
2023-02-25T07:29:45.268Z,1.33
2023-02-25T07:32:14.964Z,1.25
2023-02-25T07:34:44.727Z,1.34
2023-02-25T07:37:17.187Z,1.35
2023-02-25T07:39:47.753Z,1.47
2023-02-25T07:42:17.579Z,1.47
2023-02-25T07:44:51.903Z,1.50
2023-02-25T07:47:22.113Z,1.30
2023-02-25T07:49:51.690Z,1.48
2023-02-25T07:52:24.066Z,1.57
2023-02-25T07:54:53.717Z,1.60
2023-02-25T07:57:23.417Z,1.62
2023-02-25T07:59:52.953Z,1.71
2023-02-25T08:02:22.592Z,1.72
2023-02-25T08:04:52.301Z,1.77
2023-02-25T08:07:26.028Z,1.95
2023-02-25T08:09:57.203Z,2.03
2023-02-25T08:12:26.754Z,1.83
2023-02-25T08:15:02.070Z,1.89
2023-02-25T08:17:33.075Z,1.80
2023-02-25T08:20:02.625Z,1.98
2023-02-25T08:22:34.935Z,2.03
2023-02-25T08:25:04.591Z,1.98
2023-02-25T08:27:35.318Z,2.04
2023-02-25T08:30:08.662Z,2.00
2023-02-25T08:32:38.817Z,1.84
2023-02-25T08:35:09.390Z,1.90
2023-02-25T08:37:41.632Z,2.08
2023-02-25T08:40:13.947Z,1.85
2023-02-25T08:42:43.517Z,2.08
2023-02-25T08:45:13.945Z,2.27
2023-02-25T08:47:44.418Z,2.14
2023-02-25T08:50:16.989Z,1.98
2023-02-25T08:52:49.188Z,1.92
2023-02-25T08:55:19.391Z,1.83
2023-02-25T08:57:48.943Z,1.71
2023-02-25T09:00:19.584Z,1.76
2023-02-25T09:02:49.669Z,2.02
2023-02-25T09:05:20.725Z,2.07
2023-02-25T09:07:53.040Z,1.92
2023-02-25T09:10:23.991Z,1.82
2023-02-25T09:12:54.717Z,2.07
2023-02-25T09:15:24.922Z,2.12
2023-02-25T09:17:54.603Z,2.13
2023-02-25T09:20:26.052Z,2.24
2023-02-25T09:22:59.811Z,2.22
2023-02-25T09:25:30.775Z,2.17
2023-02-25T09:28:00.403Z,2.05
2023-02-25T09:30:30.049Z,2.14
2023-02-25T09:32:59.747Z,2.22
2023-02-25T09:35:29.450Z,2.43
2023-02-25T09:38:01.626Z,2.27
2023-02-25T09:40:31.376Z,2.20
2023-02-25T09:43:11.364Z,2.43
2023-02-25T09:45:47.271Z,2.43
2023-02-25T09:48:20.368Z,2.49
2023-02-25T09:50:54.656Z,2.32
2023-02-25T09:53:33.095Z,2.36
2023-02-25T09:56:03.333Z,2.55
2023-02-25T09:58:36.786Z,2.38
2023-02-25T10:01:10.126Z,2.47
2023-02-25T10:03:56.784Z,2.42
2023-02-25T10:06:32.393Z,2.47
2023-02-25T10:09:13.745Z,2.45
2023-02-25T10:11:54.228Z,2.50
2023-02-25T10:14:39.794Z,2.50
2023-02-25T10:17:15.510Z,3.10
2023-02-25T10:19:53.394Z,3.29
2023-02-25T10:22:39.655Z,3.08
2023-02-25T10:25:18.132Z,2.71
2023-02-25T10:27:53.043Z,2.41
2023-02-25T10:30:28.035Z,2.59
2023-02-25T10:32:58.937Z,2.72
2023-02-25T10:35:31.402Z,2.84
2023-02-25T10:38:01.178Z,2.42
2023-02-25T10:40:33.404Z,2.32
2023-02-25T10:43:05.982Z,2.04
2023-02-25T10:45:36.479Z,2.02
2023-02-25T10:48:10.283Z,2.11
2023-02-25T10:50:46.023Z,2.00
2023-02-25T10:53:18.722Z,2.19
2023-02-25T10:55:56.708Z,2.19
2023-02-25T10:58:31.652Z,2.05
2023-02-25T11:01:05.619Z,2.10
2023-02-25T11:03:43.360Z,2.03
2023-02-25T11:06:16.582Z,2.00
2023-02-25T11:08:46.828Z,2.30
2023-02-25T11:11:25.177Z,2.26
2023-02-25T11:14:03.248Z,2.34
2023-02-25T11:16:35.246Z,2.21
2023-02-25T11:19:15.118Z,2.51
2023-02-25T11:21:48.729Z,2.54
2023-02-25T11:24:20.682Z,2.49
2023-02-25T11:26:54.902Z,2.67
2023-02-25T11:29:28.644Z,3.04
2023-02-25T11:32:04.637Z,2.97
2023-02-25T11:34:35.060Z,2.93
2023-02-25T11:37:29.671Z,3.15
2023-02-25T11:39:59.957Z,2.83
2023-02-25T11:42:32.837Z,2.77
2023-02-25T11:45:04.347Z,2.99
2023-02-25T11:47:36.471Z,2.95
2023-02-25T11:50:20.614Z,2.89
2023-02-25T11:52:56.286Z,2.83
2023-02-25T11:55:43.341Z,2.99
2023-02-25T11:58:23.936Z,3.08
2023-02-25T12:01:02.736Z,2.85
2023-02-25T12:04:01.171Z,2.75
2023-02-25T12:06:54.956Z,2.63
2023-02-25T12:10:00.598Z,3.00
2023-02-25T12:13:00.364Z,3.31
2023-02-25T12:15:52.022Z,3.57
2023-02-25T12:18:45.806Z,3.08
2023-02-25T12:21:52.442Z,2.79
2023-02-25T12:24:52.686Z,2.46
2023-02-25T12:27:56.474Z,2.45
2023-02-25T12:30:54.586Z,2.37
2023-02-25T12:33:40.059Z,2.59
2023-02-25T12:36:36.266Z,2.62
2023-02-25T12:39:21.908Z,2.56
2023-02-25T12:42:00.549Z,2.54
2023-02-25T12:45:02.774Z,2.27
2023-02-25T12:47:50.762Z,2.48
2023-02-25T12:50:41.206Z,2.51
2023-02-25T12:53:26.418Z,2.43
2023-02-25T12:56:15.907Z,1.00
2023-02-25T12:59:10.502Z,0.37
2023-02-25T13:01:49.050Z,0.26
2023-02-25T13:04:59.585Z,0.89
2023-02-25T13:07:50.497Z,0.75
2023-02-25T13:10:39.877Z,1.11
2023-02-25T13:13:41.158Z,0.75
2023-02-25T13:16:23.638Z,0.80
2023-02-25T13:19:12.469Z,0.90
2023-02-25T13:21:57.946Z,0.81
2023-02-25T13:24:37.947Z,0.70
2023-02-25T13:27:35.907Z,0.58
2023-02-25T13:30:23.672Z,0.47
2023-02-25T13:33:05.625Z,0.63
2023-02-25T13:35:47.593Z,0.71
2023-02-25T13:38:35.795Z,1.03
2023-02-25T13:41:22.891Z,0.94
2023-02-25T13:44:02.090Z,1.01
2023-02-25T13:46:55.252Z,1.24
2023-02-25T13:50:00.579Z,1.06
2023-02-25T13:52:36.726Z,1.22
2023-02-25T13:55:29.717Z,1.26
2023-02-25T13:58:28.007Z,1.44
2023-02-25T14:01:19.571Z,1.37
2023-02-25T14:04:22.090Z,1.45
2023-02-25T14:07:13.581Z,1.76
2023-02-25T14:09:49.803Z,1.83
2023-02-25T14:12:39.171Z,2.02
2023-02-25T14:15:41.035Z,2.00
2023-02-25T14:18:25.781Z,2.28
2023-02-25T14:21:07.484Z,2.28
2023-02-25T14:23:49.272Z,2.27
2023-02-25T14:26:29.504Z,2.15
2023-02-25T14:29:13.782Z,2.17
2023-02-25T14:32:01.570Z,2.24
2023-02-25T14:34:44.724Z,2.08
2023-02-25T14:37:29.233Z,2.25
2023-02-25T14:40:23.697Z,2.20
2023-02-25T14:43:15.565Z,1.91
2023-02-25T14:45:54.827Z,1.88
2023-02-25T14:48:32.673Z,1.75
2023-02-25T14:51:20.626Z,1.77
2023-02-25T14:54:07.452Z,1.87
2023-02-25T14:57:03.542Z,1.92
2023-02-25T14:59:56.789Z,1.88
2023-02-25T15:02:58.375Z,1.90
2023-02-25T15:05:43.126Z,2.01
2023-02-25T15:08:37.591Z,2.01
2023-02-25T15:11:41.653Z,1.96
2023-02-25T15:14:30.649Z,2.11
2023-02-25T15:17:21.629Z,2.13
2023-02-25T15:20:06.669Z,2.30
2023-02-25T15:22:37.487Z,2.32
2023-02-25T15:25:41.681Z,2.36
2023-02-25T15:28:36.512Z,2.32
2023-02-25T15:31:13.966Z,2.18
2023-02-25T15:33:45.524Z,2.03
2023-02-25T15:36:31.159Z,1.97
2023-02-25T15:39:01.304Z,2.07
2023-02-25T15:41:44.916Z,1.90
2023-02-25T15:44:35.735Z,1.93
2023-02-25T15:47:25.363Z,1.84
2023-02-25T15:49:56.675Z,1.88
2023-02-25T15:52:56.425Z,1.70
2023-02-25T15:55:53.366Z,1.79
2023-02-25T15:58:45.432Z,1.96
2023-02-25T16:01:42.738Z,1.89
2023-02-25T16:04:43.194Z,2.01
2023-02-25T16:07:17.217Z,2.29
2023-02-25T16:09:52.048Z,2.25
2023-02-25T16:12:24.989Z,2.29
2023-02-25T16:14:55.711Z,2.07
2023-02-25T16:17:32.484Z,2.06
2023-02-25T16:20:09.559Z,2.13
2023-02-25T16:22:40.249Z,2.01
2023-02-25T16:25:17.883Z,1.89
2023-02-25T16:27:59.769Z,2.06
2023-02-25T16:30:41.512Z,2.12
2023-02-25T16:33:21.483Z,1.62
2023-02-25T16:36:06.822Z,1.64
2023-02-25T16:38:44.224Z,1.89
2023-02-25T16:41:14.813Z,1.77
2023-02-25T16:43:48.417Z,1.85
2023-02-25T16:46:20.612Z,1.78
2023-02-25T16:48:53.048Z,1.74
2023-02-25T16:51:26.756Z,1.68
2023-02-25T16:54:01.306Z,1.73
2023-02-25T16:56:33.851Z,1.62
2023-02-25T16:59:09.189Z,1.65
2023-02-25T17:01:40.879Z,1.76
2023-02-25T17:04:20.101Z,1.65
2023-02-25T17:07:10.108Z,1.68
2023-02-25T17:09:46.243Z,1.67
2023-02-25T17:12:20.320Z,1.54
2023-02-25T17:14:54.738Z,1.53
2023-02-25T17:17:32.590Z,1.67
2023-02-25T17:20:05.868Z,1.65
2023-02-25T17:22:36.539Z,1.57
2023-02-25T17:25:08.268Z,1.33
2023-02-25T17:27:37.880Z,1.07
2023-02-25T17:30:41.406Z,1.01
2023-02-25T17:33:24.589Z,1.19
2023-02-25T17:35:59.578Z,1.33
2023-02-25T17:38:33.611Z,1.29
2023-02-25T17:41:03.938Z,1.13
2023-02-25T17:43:38.847Z,0.97
2023-02-25T17:46:26.177Z,0.99
2023-02-25T17:48:59.418Z,0.91
2023-02-25T17:51:34.836Z,1.04
2023-02-25T17:54:09.790Z,1.15
2023-02-25T17:56:39.746Z,0.97
2023-02-25T17:59:31.231Z,0.96
2023-02-25T18:02:04.664Z,0.91
2023-02-25T18:04:36.824Z,0.83
2023-02-25T18:07:23.267Z,0.86
2023-02-25T18:09:53.575Z,0.75
2023-02-25T18:12:29.832Z,0.83
2023-02-25T18:15:02.440Z,0.96
2023-02-25T18:17:37.204Z,0.82
2023-02-25T18:20:09.801Z,0.82
2023-02-25T18:22:42.334Z,0.58
2023-02-25T18:25:36.741Z,0.75
2023-02-25T18:28:08.851Z,0.67
2023-02-25T18:30:38.704Z,0.88
2023-02-25T18:33:11.657Z,0.76
2023-02-25T18:35:44.724Z,0.64
2023-02-25T18:38:20.840Z,0.58
2023-02-25T18:40:52.743Z,0.72
2023-02-25T18:43:25.509Z,0.64
2023-02-25T18:45:55.285Z,0.69
2023-02-25T18:48:27.681Z,0.56
2023-02-25T18:50:58.637Z,0.48
2023-02-25T18:53:28.952Z,0.46
2023-02-25T18:55:59.902Z,0.68
2023-02-25T18:58:29.722Z,0.47
2023-02-25T19:01:01.522Z,0.54
2023-02-25T19:03:39.295Z,0.52
2023-02-25T19:06:09.782Z,0.66
2023-02-25T19:08:39.515Z,0.59
2023-02-25T19:11:09.287Z,0.55
2023-02-25T19:13:41.742Z,0.58
2023-02-25T19:16:11.657Z,0.47
2023-02-25T19:18:47.282Z,0.45
2023-02-25T19:21:19.120Z,0.54
2023-02-25T19:23:51.783Z,0.58
2023-02-25T19:26:22.620Z,0.51
2023-02-25T19:28:52.595Z,0.67
2023-02-25T19:31:22.231Z,0.44
2023-02-25T19:33:54.388Z,0.75
2023-02-25T19:36:24.193Z,0.58
2023-02-25T19:38:54.123Z,0.58
2023-02-25T19:41:23.727Z,0.60
2023-02-25T19:43:54.153Z,0.77
2023-02-25T19:46:24.264Z,0.70
2023-02-25T19:48:56.830Z,0.72
2023-02-25T19:51:26.568Z,0.81
2023-02-25T19:53:56.351Z,0.81
2023-02-25T19:56:26.235Z,0.71
2023-02-25T19:58:58.920Z,0.72
2023-02-25T20:01:28.722Z,0.40
2023-02-25T20:04:00.974Z,0.55
2023-02-25T20:06:33.149Z,0.52
2023-02-25T20:09:03.970Z,0.60
2023-02-25T20:11:33.661Z,0.26
2023-02-25T20:14:03.957Z,0.61
2023-02-25T20:16:34.630Z,0.42
2023-02-25T20:19:07.299Z,0.43
2023-02-25T20:21:38.023Z,0.56
2023-02-25T20:24:08.647Z,0.70
2023-02-25T20:26:38.462Z,0.58
2023-02-25T20:29:08.522Z,0.66
2023-02-25T20:31:38.145Z,0.62
2023-02-25T20:34:15.501Z,0.64
2023-02-25T20:36:54.334Z,0.66
2023-02-25T20:39:40.037Z,0.66
2023-02-25T20:42:14.727Z,0.75
2023-02-25T20:44:44.714Z,0.75
2023-02-25T20:47:19.752Z,0.49
2023-02-25T20:49:53.217Z,0.75
2023-02-25T20:52:23.980Z,0.61
2023-02-25T20:54:53.533Z,0.70
2023-02-25T20:57:26.710Z,0.74
2023-02-25T20:59:56.828Z,0.48
2023-02-25T21:02:26.414Z,0.44
2023-02-25T21:04:58.574Z,0.29
2023-02-25T21:07:28.167Z,0.27
2023-02-25T21:09:57.976Z,0.23
2023-02-25T21:12:27.571Z,0.14
2023-02-25T21:14:57.279Z,0.07
2023-02-25T21:17:27.180Z,0.19
2023-02-25T21:19:59.382Z,0.33
2023-02-25T21:22:28.990Z,0.04
2023-02-25T21:24:59.178Z,0.14
2023-02-25T21:27:29.108Z,0.09
2023-02-25T21:29:59.148Z,0.23
2023-02-25T21:32:29.104Z,0.17
2023-02-25T21:35:02.001Z,0.16
2023-02-25T21:37:31.696Z,0.27
2023-02-25T21:40:01.399Z,0.01
2023-02-25T21:42:31.071Z,-0.01
2023-02-25T21:45:00.717Z,0.20
2023-02-25T21:47:30.397Z,0.04
2023-02-25T21:50:02.584Z,0.24
2023-02-25T21:52:32.839Z,0.25
2023-02-25T21:55:02.488Z,0.23
2023-02-25T21:57:32.499Z,0.14
2023-02-25T22:00:02.704Z,0.16
2023-02-25T22:02:41.767Z,0.26
2023-02-25T22:05:14.262Z,0.14
2023-02-25T22:07:43.806Z,0.42
2023-02-25T22:10:16.455Z,0.25
2023-02-25T22:12:46.132Z,0.24
2023-02-25T22:15:16.103Z,0.25
2023-02-25T22:17:45.679Z,0.17
2023-02-25T22:20:18.080Z,0.11
2023-02-25T22:22:47.721Z,-0.02
2023-02-25T22:25:19.548Z,-0.16
2023-02-25T22:27:49.156Z,-0.10
2023-02-25T22:30:19.230Z,0.11
2023-02-25T22:32:48.944Z,0.21
2023-02-25T22:35:21.415Z,0.22
2023-02-25T22:37:50.963Z,0.17
2023-02-25T22:40:20.535Z,0.14
2023-02-25T22:42:50.094Z,0.05
2023-02-25T22:45:19.821Z,0.21
2023-02-25T22:47:49.374Z,0.20
2023-02-25T22:50:21.864Z,0.12
2023-02-25T22:52:51.825Z,0.14
2023-02-25T22:55:21.456Z,0.09
2023-02-25T22:57:51.104Z,0.26
2023-02-25T23:00:22.023Z,0.11
2023-02-25T23:02:51.697Z,0.24
2023-02-25T23:05:23.854Z,0.22
2023-02-25T23:07:53.432Z,0.11
2023-02-25T23:10:22.990Z,0.04
2023-02-25T23:12:52.554Z,0.08
2023-02-25T23:15:22.114Z,0.15
2023-02-25T23:17:51.741Z,0.29
2023-02-25T23:20:24.961Z,0.28
2023-02-25T23:22:56.331Z,0.15
2023-02-25T23:25:25.936Z,0.21
2023-02-25T23:27:55.522Z,0.13
2023-02-25T23:30:25.162Z,0.08
2023-02-25T23:32:55.357Z,0.15
2023-02-25T23:35:27.885Z,0.04
2023-02-25T23:37:57.441Z,-0.04
2023-02-25T23:40:27.057Z,-0.03
2023-02-25T23:42:56.666Z,0.12
2023-02-25T23:45:27.549Z,-0.03
2023-02-25T23:47:57.178Z,0.15
2023-02-25T23:50:29.611Z,-0.15
2023-02-25T23:52:59.194Z,-0.33
2023-02-25T23:55:29.252Z,-0.19
2023-02-25T23:57:58.888Z,-0.39
